Time;durP1;ratioP1;P1;durP2;ratioP2;P2;SDS_P1;SDS_P2;PMS_P1;PMS_P2;Temp;Humidity;BMP_temperature;BMP_pressure;BME280_temperature;BME280_humidity;BME280_pressure;Samples;Min_cycle;Max_cycle;Signal;HPM_P1;HPM_P2
2023/08/20 00:00:37;;;;;;;2.78;2.58;;;;;;;23.69;nan;100846.00;4984673;28;20029;-78
2023/08/20 00:03:04;;;;;;;2.63;2.50;;;;;;;23.69;nan;100846.00;4987943;28;20430;-78
2023/08/20 00:05:31;;;;;;;2.70;2.50;;;;;;;23.69;nan;100843.34;4990897;28;20512;-77
2023/08/20 00:07:56;;;;;;;3.17;2.97;;;;;;;23.70;nan;100845.03;4985924;28;20058;-77
2023/08/20 00:10:21;;;;;;;2.95;2.75;;;;;;;23.69;nan;100846.00;4985799;28;20125;-77
2023/08/20 00:12:47;;;;;;;2.83;2.63;;;;;;;23.70;nan;100844.19;4993237;28;20105;-78
2023/08/20 00:15:12;;;;;;;2.85;2.65;;;;;;;23.70;nan;100845.03;4992428;28;20041;-78
2023/08/20 00:17:39;;;;;;;2.50;2.38;;;;;;;23.70;nan;100844.19;4985918;28;20030;-77
2023/08/20 00:20:10;;;;;;;2.78;2.58;;;;;;;23.70;nan;100846.84;4983549;28;20877;-77
2023/08/20 00:22:36;;;;;;;2.85;2.65;;;;;;;23.70;nan;100849.50;4982515;28;20034;-77
2023/08/20 00:25:03;;;;;;;2.88;2.67;;;;;;;23.70;nan;100847.69;4979229;28;20050;-77
2023/08/20 00:27:28;;;;;;;2.78;2.58;;;;;;;23.70;nan;100852.16;4985253;28;20656;-77
2023/08/20 00:29:53;;;;;;;2.53;2.33;;;;;;;23.70;nan;100849.50;4985022;28;20034;-77
2023/08/20 00:32:19;;;;;;;2.80;2.60;;;;;;;23.71;nan;100848.53;4990305;28;20064;-77
2023/08/20 00:34:44;;;;;;;3.22;2.97;;;;;;;23.70;nan;100850.34;4987958;28;20108;-78
2023/08/20 00:37:09;;;;;;;2.78;2.58;;;;;;;23.70;nan;100846.84;4985652;28;20033;-78
2023/08/20 00:39:35;;;;;;;2.90;2.60;;;;;;;23.70;nan;100849.50;4985273;28;20548;-77
2023/08/20 00:42:00;;;;;;;3.20;2.90;;;;;;;23.70;nan;100849.50;4987287;28;20509;-77
2023/08/20 00:44:25;;;;;;;2.90;2.70;;;;;;;23.70;nan;100847.69;4977754;28;20031;-77
2023/08/20 00:46:51;;;;;;;3.08;2.78;;;;;;;23.71;nan;100857.34;4983475;28;20030;-78
2023/08/20 00:49:16;;;;;;;2.90;2.70;;;;;;;23.71;nan;100856.47;4983566;28;20045;-77
2023/08/20 00:51:42;;;;;;;2.70;2.50;;;;;;;23.71;nan;100859.13;4982714;28;20092;-79
2023/08/20 00:54:07;;;;;;;2.88;2.67;;;;;;;23.71;nan;100861.78;4979847;28;20154;-78
2023/08/20 00:56:32;;;;;;;3.55;2.70;;;;;;;23.71;nan;100862.66;4981247;28;20042;-78
2023/08/20 00:58:58;;;;;;;3.22;3.03;;;;;;;23.71;nan;100859.13;4982307;28;20057;-78
2023/08/20 01:01:23;;;;;;;2.85;2.65;;;;;;;23.70;nan;100858.28;4966151;28;20164;-77
2023/08/20 01:03:49;;;;;;;3.10;2.90;;;;;;;23.71;nan;100861.78;4961456;28;20046;-77
2023/08/20 01:06:37;;;;;;;2.90;2.70;;;;;;;23.70;nan;100863.59;4978444;28;20149;-78
2023/08/20 01:09:13;;;;;;;2.73;2.53;;;;;;;23.70;nan;100855.63;4982549;28;20026;-77
2023/08/20 01:11:45;;;;;;;4.20;2.88;;;;;;;23.71;nan;100861.78;4981443;28;20065;-78
2023/08/20 01:14:17;;;;;;;2.95;2.75;;;;;;;23.70;nan;100860.94;4978199;28;20851;-78
2023/08/20 01:16:43;;;;;;;2.65;2.55;;;;;;;23.70;nan;100865.41;4983469;28;20179;-78
2023/08/20 01:19:17;;;;;;;3.05;2.85;;;;;;;23.71;nan;100856.47;4983176;28;20457;-78
2023/08/20 01:22:13;;;;;;;3.13;2.92;;;;;;;23.70;nan;100854.78;4983820;28;20030;-79
2023/08/20 01:24:44;;;;;;;3.10;2.90;;;;;;;23.70;nan;100858.28;4993968;28;20090;-78
2023/08/20 01:27:31;;;;;;;2.65;2.55;;;;;;;23.71;nan;100856.47;4982290;28;20045;-79
2023/08/20 01:29:58;;;;;;;3.00;2.80;;;;;;;23.70;nan;100854.78;4981762;28;20150;-78
2023/08/20 01:32:24;;;;;;;2.88;2.67;;;;;;;23.72;nan;100858.19;4981789;28;20133;-77
2023/08/20 01:34:49;;;;;;;3.13;2.90;;;;;;;23.71;nan;100853.81;4979263;28;20034;-79
2023/08/20 01:37:14;;;;;;;3.30;3.00;;;;;;;23.70;nan;100850.34;4982333;28;20404;-78
2023/08/20 01:39:39;;;;;;;2.90;2.70;;;;;;;23.70;nan;100849.50;4981158;28;20040;-77
2023/08/20 01:42:06;;;;;;;3.05;2.85;;;;;;;23.70;nan;100849.50;4980498;28;20033;-78
2023/08/20 01:44:31;;;;;;;2.63;2.42;;;;;;;23.70;nan;100845.03;4977789;28;20034;-78
2023/08/20 01:46:56;;;;;;;2.85;2.63;;;;;;;23.71;nan;100848.53;4981190;28;20152;-78
2023/08/20 01:49:21;;;;;;;3.10;2.88;;;;;;;23.70;nan;100833.59;4983733;28;20125;-78
2023/08/20 01:51:47;;;;;;;2.85;2.65;;;;;;;23.70;nan;100836.25;4983673;28;20026;-78
2023/08/20 01:54:12;;;;;;;3.00;2.80;;;;;;;23.70;nan;100841.53;4994770;28;20075;-78
2023/08/20 01:56:37;;;;;;;2.90;2.70;;;;;;;23.71;nan;100840.56;4985273;28;20030;-78
2023/08/20 01:59:03;;;;;;;2.78;2.60;;;;;;;23.70;nan;100830.94;4984395;28;20574;-78
2023/08/20 02:01:28;;;;;;;2.60;2.40;;;;;;;23.71;nan;100840.56;4980249;28;21345;-78
2023/08/20 02:03:54;;;;;;;2.88;2.67;;;;;;;23.70;nan;100838.88;4993496;28;20048;-78
2023/08/20 02:06:19;;;;;;;2.90;2.70;;;;;;;23.70;nan;100845.03;4980014;28;20034;-78
2023/08/20 02:08:44;;;;;;;3.08;2.88;;;;;;;23.71;nan;100840.56;4983677;28;20026;-77
2023/08/20 02:11:10;;;;;;;2.90;2.70;;;;;;;23.71;nan;100840.56;4981680;28;20496;-77
2023/08/20 02:13:35;;;;;;;3.20;3.00;;;;;;;23.71;nan;100837.91;4987344;28;20900;-78
2023/08/20 02:16:02;;;;;;;2.63;2.47;;;;;;;23.70;nan;100839.72;4989495;28;20029;-78
2023/08/20 02:18:28;;;;;;;2.97;2.78;;;;;;;23.70;nan;100838.88;4983706;28;20079;-77
2023/08/20 02:20:53;;;;;;;2.72;2.63;;;;;;;23.70;nan;100833.59;4981924;28;20490;-78
2023/08/20 02:23:18;;;;;;;3.00;2.80;;;;;;;23.70;nan;100845.03;4979419;28;20041;-78
2023/08/20 02:25:44;;;;;;;3.20;3.00;;;;;;;23.70;nan;100847.69;4979403;28;20046;-78
2023/08/20 02:28:09;;;;;;;2.97;2.75;;;;;;;23.70;nan;100850.34;4983464;28;20075;-78
2023/08/20 02:30:45;;;;;;;3.13;2.83;;;;;;;23.70;nan;100847.69;4982711;28;20034;-78
2023/08/20 02:33:11;;;;;;;2.92;2.72;;;;;;;23.70;nan;100850.34;4986981;28;20042;-77
2023/08/20 02:35:37;;;;;;;2.55;2.38;;;;;;;23.71;nan;100848.53;4982299;28;20038;-78
2023/08/20 02:38:03;;;;;;;2.80;2.60;;;;;;;23.71;nan;100851.19;4982690;28;20034;-78
2023/08/20 02:40:28;;;;;;;3.10;2.90;;;;;;;23.70;nan;100849.50;4982321;28;20034;-78
2023/08/20 02:42:54;;;;;;;2.85;2.65;;;;;;;23.70;nan;100850.34;4982841;28;20035;-78
2023/08/20 02:45:19;;;;;;;3.17;2.55;;;;;;;23.71;nan;100845.88;4986000;28;20041;-78
2023/08/20 02:47:44;;;;;;;3.10;2.80;;;;;;;23.70;nan;100850.34;4983336;28;20042;-78
2023/08/20 02:50:10;;;;;;;2.67;2.47;;;;;;;23.70;nan;100850.34;4982599;28;20116;-78
2023/08/20 02:52:35;;;;;;;2.72;2.53;;;;;;;23.70;nan;100849.50;4982276;28;20128;-77
2023/08/20 02:55:00;;;;;;;2.83;2.63;;;;;;;23.70;nan;100847.69;4993998;28;20108;-78
2023/08/20 02:57:26;;;;;;;2.40;2.30;;;;;;;23.69;nan;100843.34;4982083;28;20049;-77
2023/08/20 02:59:51;;;;;;;2.72;2.53;;;;;;;23.70;nan;100849.50;4982875;28;20030;-78
2023/08/20 03:02:17;;;;;;;2.70;2.50;;;;;;;23.70;nan;100850.34;4981751;28;20027;-78
2023/08/20 03:04:42;;;;;;;2.80;2.60;;;;;;;23.71;nan;100851.19;4984721;28;20058;-77
2023/08/20 03:07:08;;;;;;;2.80;2.60;;;;;;;23.70;nan;100846.84;4981484;28;20037;-78
2023/08/20 03:09:33;;;;;;;3.00;2.80;;;;;;;23.70;nan;100849.50;4982794;28;20037;-78
2023/08/20 03:11:58;;;;;;;2.72;2.53;;;;;;;23.71;nan;100851.19;4981472;28;20708;-78
2023/08/20 03:14:24;;;;;;;2.72;2.53;;;;;;;23.71;nan;100859.13;4983608;28;20867;-78
2023/08/20 03:16:49;;;;;;;2.70;2.50;;;;;;;23.71;nan;100851.19;4982958;28;20607;-78
2023/08/20 03:19:15;;;;;;;2.70;2.50;;;;;;;23.71;nan;100853.81;4986063;28;20033;-77
2023/08/20 03:21:40;;;;;;;2.60;2.42;;;;;;;23.71;nan;100844.09;4985082;28;20410;-78
2023/08/20 03:24:07;;;;;;;2.90;2.70;;;;;;;23.70;nan;100850.34;4979067;28;20525;-78
2023/08/20 03:26:32;;;;;;;2.90;2.70;;;;;;;23.70;nan;100852.16;4985766;28;20320;-78
2023/08/20 03:28:58;;;;;;;2.85;2.70;;;;;;;23.70;nan;100852.16;4985694;28;20406;-78
2023/08/20 03:31:24;;;;;;;2.83;2.63;;;;;;;23.70;nan;100849.50;4986222;28;20128;-78
2023/08/20 03:33:49;;;;;;;2.60;2.50;;;;;;;23.70;nan;100846.84;4996236;28;20033;-78
2023/08/20 03:36:14;;;;;;;2.70;2.50;;;;;;;23.71;nan;100856.47;4983560;28;20058;-78
2023/08/20 03:38:40;;;;;;;2.90;2.70;;;;;;;23.70;nan;100846.84;4986114;28;20117;-77
2023/08/20 03:41:05;;;;;;;3.08;2.88;;;;;;;23.70;nan;100844.19;4986418;28;20038;-78
2023/08/20 03:43:30;;;;;;;3.10;2.90;;;;;;;23.71;nan;100851.19;4996384;28;20112;-78
2023/08/20 03:45:56;;;;;;;2.40;2.20;;;;;;;23.70;nan;100845.03;4993565;28;20089;-78
2023/08/20 03:48:21;;;;;;;2.60;2.50;;;;;;;23.69;nan;100853.13;4984016;28;20125;-78
2023/08/20 03:50:47;;;;;;;2.45;2.35;;;;;;;23.71;nan;100851.19;4985359;28;20038;-78
2023/08/20 03:53:12;;;;;;;3.10;2.90;;;;;;;23.70;nan;100849.50;4988757;28;20092;-78
2023/08/20 03:55:37;;;;;;;2.47;2.30;;;;;;;23.70;nan;100854.78;4983714;28;20556;-78
2023/08/20 03:58:03;;;;;;;2.70;2.50;;;;;;;23.70;nan;100849.50;4984810;28;20038;-78
2023/08/20 04:00:28;;;;;;;3.20;3.00;;;;;;;23.70;nan;100860.09;4968571;28;20034;-78
2023/08/20 04:02:54;;;;;;;2.80;2.60;;;;;;;23.71;nan;100869.72;4992695;28;20040;-77
2023/08/20 04:05:19;;;;;;;2.70;2.50;;;;;;;23.70;nan;100870.69;4988110;28;20046;-77
2023/08/20 04:07:45;;;;;;;3.00;2.80;;;;;;;23.70;nan;100866.25;4984337;28;20030;-78
2023/08/20 04:10:10;;;;;;;2.72;2.53;;;;;;;23.70;nan;100862.75;4985438;28;20033;-78
2023/08/20 04:12:35;;;;;;;2.80;2.60;;;;;;;23.70;nan;100860.09;4989135;28;20172;-77
2023/08/20 04:15:01;;;;;;;2.78;2.58;;;;;;;23.70;nan;100871.53;4983658;28;20053;-79
2023/08/20 04:17:26;;;;;;;2.58;2.38;;;;;;;23.69;nan;100869.03;4984102;28;20022;-78
2023/08/20 04:19:52;;;;;;;3.10;2.90;;;;;;;23.69;nan;100872.50;4984136;28;20088;-78
2023/08/20 04:22:17;;;;;;;2.88;2.65;;;;;;;23.69;nan;100859.25;4988203;28;20029;-79
2023/08/20 04:24:42;;;;;;;2.95;2.75;;;;;;;23.70;nan;100862.75;4995968;28;20062;-78
2023/08/20 04:27:08;;;;;;;2.30;2.20;;;;;;;23.70;nan;100854.78;4991068;28;20165;-78
2023/08/20 04:29:33;;;;;;;3.10;2.90;;;;;;;23.69;nan;100853.97;4984776;28;20112;-77
2023/08/20 04:31:58;;;;;;;2.80;2.60;;;;;;;23.69;nan;100850.47;4983220;28;20608;-78
2023/08/20 04:34:24;;;;;;;2.88;2.67;;;;;;;23.69;nan;100861.91;4979349;28;20034;-77
2023/08/20 04:36:49;;;;;;;2.70;2.50;;;;;;;23.70;nan;100865.41;4987461;28;20050;-78
2023/08/20 04:39:14;;;;;;;2.97;2.78;;;;;;;23.69;nan;100869.88;4985155;28;20065;-79
2023/08/20 04:41:40;;;;;;;2.88;2.67;;;;;;;23.70;nan;100873.34;4969308;28;20026;-78
2023/08/20 04:44:05;;;;;;;3.05;2.85;;;;;;;23.70;nan;100876.00;4990118;28;20034;-78
2023/08/20 04:46:30;;;;;;;2.90;2.70;;;;;;;23.69;nan;100874.31;4987799;28;20125;-78
2023/08/20 04:48:56;;;;;;;2.72;2.53;;;;;;;23.70;nan;100876.00;4984637;28;20158;-77
2023/08/20 04:51:21;;;;;;;2.47;2.35;;;;;;;23.70;nan;100886.59;4985247;28;20034;-78
2023/08/20 04:53:47;;;;;;;2.60;2.40;;;;;;;23.70;nan;100892.75;4993846;28;20061;-78
2023/08/20 04:59:34;;;;;;;2.58;2.47;;;;;;;23.70;nan;100881.31;4984409;28;20127;-77
2023/08/20 05:01:59;;;;;;;2.53;2.42;;;;;;;23.69;nan;100885.78;4983225;28;20073;-77
2023/08/20 05:04:25;;;;;;;2.75;2.55;;;;;;;23.69;nan;100891.06;4983983;28;20593;-77
2023/08/20 05:06:50;;;;;;;3.25;3.05;;;;;;;23.70;nan;100898.06;4986839;28;20798;-77
2023/08/20 05:09:16;;;;;;;2.63;2.42;;;;;;;23.70;nan;100897.22;4982565;28;20100;-77
2023/08/20 05:11:41;;;;;;;2.55;2.35;;;;;;;23.70;nan;100897.22;4981514;28;20030;-77
2023/08/20 05:14:07;;;;;;;2.53;2.33;;;;;;;23.70;nan;100899.88;4991849;28;20033;-77
2023/08/20 05:16:32;;;;;;;2.70;2.50;;;;;;;23.70;nan;100905.16;4985476;28;20041;-77
2023/08/20 05:18:57;;;;;;;2.47;2.35;;;;;;;23.70;nan;100898.06;4983282;28;20017;-77
2023/08/20 05:21:23;;;;;;;2.53;2.40;;;;;;;23.70;nan;100903.34;4982306;28;20505;-77
2023/08/20 05:23:48;;;;;;;2.53;2.33;;;;;;;23.71;nan;100906.84;4977571;28;20902;-77
2023/08/20 05:26:13;;;;;;;2.60;2.45;;;;;;;23.70;nan;100905.16;4981475;28;20495;-77
2023/08/20 05:28:39;;;;;;;2.92;2.72;;;;;;;23.69;nan;100906.97;4984500;28;20488;-78
2023/08/20 05:31:04;;;;;;;2.38;2.17;;;;;;;23.70;nan;100905.16;4984972;28;20368;-78
2023/08/20 05:33:29;;;;;;;2.80;2.60;;;;;;;23.70;nan;100910.47;4963769;28;20030;-78
2023/08/20 05:35:55;;;;;;;2.55;2.45;;;;;;;23.70;nan;100915.78;4980256;28;20459;-78
2023/08/20 05:38:20;;;;;;;2.65;2.45;;;;;;;23.70;nan;100916.59;4982916;28;20637;-79
2023/08/20 05:40:45;;;;;;;2.90;2.70;;;;;;;23.69;nan;100917.59;4984470;28;20185;-78
2023/08/20 05:43:11;;;;;;;2.85;2.65;;;;;;;23.69;nan;100914.94;4989437;28;20033;-79
2023/08/20 05:45:36;;;;;;;2.30;2.20;;;;;;;23.70;nan;100927.22;4978274;28;20428;-78
2023/08/20 05:48:02;;;;;;;2.90;2.70;;;;;;;23.70;nan;100931.69;4984529;28;20102;-79
2023/08/20 05:50:27;;;;;;;2.75;2.55;;;;;;;23.70;nan;100935.16;4981425;28;20478;-78
2023/08/20 05:52:53;;;;;;;2.90;2.70;;;;;;;23.70;nan;100932.50;4987234;28;20029;-78
2023/08/20 05:55:18;;;;;;;2.70;2.50;;;;;;;23.71;nan;100933.34;4987305;28;20057;-78
2023/08/20 05:57:43;;;;;;;2.67;2.47;;;;;;;23.70;nan;100929.88;4982706;28;20026;-78
2023/08/20 06:00:10;;;;;;;2.67;2.47;;;;;;;23.71;nan;100936.00;4982333;28;20030;-78
2023/08/20 06:02:36;;;;;;;2.75;2.60;;;;;;;23.70;nan;100935.16;4983244;28;20406;-78
2023/08/20 06:05:01;;;;;;;2.67;2.50;;;;;;;23.71;nan;100936.00;4976580;28;20033;-78
2023/08/20 06:07:27;;;;;;;2.92;2.72;;;;;;;23.71;nan;100936.00;4982678;28;21024;-79
2023/08/20 06:09:52;;;;;;;3.10;2.90;;;;;;;23.70;nan;100932.50;4983148;28;20118;-79
2023/08/20 06:12:18;;;;;;;3.20;2.88;;;;;;;23.71;nan;100936.88;4984542;28;20030;-78
2023/08/20 06:14:43;;;;;;;3.08;2.88;;;;;;;23.71;nan;100941.31;4981548;28;20026;-78
2023/08/20 06:17:09;;;;;;;2.97;2.78;;;;;;;23.71;nan;100944.84;4982546;28;20402;-77
2023/08/20 06:19:34;;;;;;;3.20;2.90;;;;;;;23.71;nan;100941.31;4983764;28;20046;-79
2023/08/20 06:21:59;;;;;;;2.97;2.78;;;;;;;23.71;nan;100946.59;4983332;28;20648;-79
2023/08/20 06:24:26;;;;;;;2.67;2.50;;;;;;;23.72;nan;100943.84;4992263;28;20150;-79
2023/08/20 06:26:52;;;;;;;2.95;2.72;;;;;;;23.72;nan;100950.97;4967306;28;20506;-78
2023/08/20 06:29:17;;;;;;;2.67;2.47;;;;;;;23.72;nan;100949.16;4981155;28;20101;-79
2023/08/20 06:31:43;;;;;;;2.88;2.67;;;;;;;23.72;nan;100945.66;4981975;28;20037;-78
2023/08/20 06:34:08;;;;;;;2.80;2.60;;;;;;;23.72;nan;100949.16;4988999;28;20387;-78
2023/08/20 06:36:33;;;;;;;2.97;2.78;;;;;;;23.72;nan;100950.97;4964675;28;20125;-78
2023/08/20 06:38:59;;;;;;;2.88;2.67;;;;;;;23.72;nan;100943.03;4982528;28;20030;-78
2023/08/20 06:41:24;;;;;;;3.05;2.80;;;;;;;23.72;nan;100940.38;4982368;28;20053;-78
2023/08/20 06:43:49;;;;;;;3.17;2.97;;;;;;;23.73;nan;100942.06;4987037;28;20065;-77
2023/08/20 06:46:15;;;;;;;3.20;2.90;;;;;;;23.72;nan;100933.25;4979168;28;20773;-78
2023/08/20 06:48:40;;;;;;;3.55;3.25;;;;;;;23.73;nan;100942.06;4986315;28;20027;-78
2023/08/20 06:51:17;;;;;;;2.78;2.60;;;;;;;23.73;nan;100950.84;4985639;28;20068;-77
2023/08/20 06:53:42;;;;;;;3.00;2.80;;;;;;;23.73;nan;100956.16;4991539;28;20065;-78
2023/08/20 06:56:08;;;;;;;3.00;2.80;;;;;;;23.73;nan;100957.97;4991824;28;20161;-78
2023/08/20 06:58:34;;;;;;;2.70;2.50;;;;;;;23.74;nan;100956.97;4988447;28;20057;-78
2023/08/20 07:01:07;;;;;;;3.28;2.85;;;;;;;23.73;nan;100958.78;4986887;28;20129;-78
2023/08/20 07:03:38;;;;;;;2.80;2.60;;;;;;;23.74;nan;100967.59;4983308;28;20034;-78
2023/08/20 07:06:03;;;;;;;2.97;2.78;;;;;;;23.73;nan;100958.78;4985138;28;20399;-78
2023/08/20 07:08:29;;;;;;;2.90;2.70;;;;;;;23.74;nan;100967.59;4986967;28;20038;-77
2023/08/20 07:10:54;;;;;;;2.95;2.75;;;;;;;23.73;nan;100966.75;4986779;28;20133;-78
2023/08/20 07:13:19;;;;;;;3.30;3.10;;;;;;;23.74;nan;100962.28;4982980;28;20073;-78
2023/08/20 07:15:45;;;;;;;2.80;2.60;;;;;;;23.73;nan;100964.09;4996635;28;20837;-78
2023/08/20 07:18:13;;;;;;;3.25;3.05;;;;;;;23.74;nan;100962.28;4986264;28;20103;-78
2023/08/20 07:20:38;;;;;;;3.47;3.22;;;;;;;23.73;nan;100961.44;4987073;28;20034;-79
2023/08/20 07:23:04;;;;;;;3.47;3.15;;;;;;;23.74;nan;100960.47;4991340;28;20045;-79
2023/08/20 07:25:29;;;;;;;3.22;2.95;;;;;;;23.74;nan;100971.06;4994044;28;20037;-78
2023/08/20 07:27:59;;;;;;;3.17;2.97;;;;;;;23.74;nan;100971.06;4987230;28;20026;-79
2023/08/20 07:30:24;;;;;;;3.03;2.83;;;;;;;23.74;nan;100972.88;4985723;28;20044;-78
2023/08/20 07:32:49;;;;;;;3.10;2.90;;;;;;;23.75;nan;100985.19;4991930;28;20038;-79
2023/08/20 07:35:15;;;;;;;3.10;2.90;;;;;;;23.75;nan;100983.38;4975035;28;20039;-78
2023/08/20 07:37:40;;;;;;;3.15;2.95;;;;;;;23.75;nan;100985.19;4985510;28;20140;-78
2023/08/20 07:40:06;;;;;;;3.35;3.08;;;;;;;23.75;nan;100978.06;4984073;28;20030;-79
2023/08/20 07:42:32;;;;;;;3.08;2.88;;;;;;;23.74;nan;100979.03;4991131;28;20073;-78
2023/08/20 07:44:57;;;;;;;3.30;3.05;;;;;;;23.76;nan;100986.84;4999433;28;20639;-79
2023/08/20 07:47:22;;;;;;;3.15;2.95;;;;;;;23.75;nan;100982.53;4986137;28;20093;-79
2023/08/20 07:49:48;;;;;;;3.20;3.00;;;;;;;23.75;nan;100982.53;4985704;28;20232;-78
2023/08/20 07:52:13;;;;;;;3.60;3.30;;;;;;;23.76;nan;100992.16;4986774;28;20057;-78
2023/08/20 07:54:38;;;;;;;3.13;2.83;;;;;;;23.75;nan;100993.97;4991470;28;20032;-78
2023/08/20 07:57:04;;;;;;;3.70;3.40;;;;;;;23.75;nan;100990.47;4985624;28;20027;-78
2023/08/20 07:59:29;;;;;;;3.03;2.83;;;;;;;23.75;nan;100983.38;4983981;28;20055;-78
2023/08/20 08:01:55;;;;;;;3.15;2.90;;;;;;;23.76;nan;100986.84;4985909;28;20469;-78
2023/08/20 08:04:20;;;;;;;3.28;2.97;;;;;;;23.76;nan;100981.56;4996511;28;20140;-78
2023/08/20 08:06:45;;;;;;;3.53;3.22;;;;;;;23.75;nan;100988.66;4971453;28;20112;-78
2023/08/20 08:09:31;;;;;;;3.20;3.00;;;;;;;23.76;nan;100981.56;4984444;28;20137;-78
2023/08/20 08:11:57;;;;;;;3.33;3.00;;;;;;;23.76;nan;100982.41;4966065;28;20770;-78
2023/08/20 08:14:23;;;;;;;3.50;3.30;;;;;;;23.76;nan;100982.41;4979282;28;20121;-78
2023/08/20 08:16:48;;;;;;;3.15;2.92;;;;;;;23.76;nan;100985.03;4982623;28;20030;-78
2023/08/20 08:19:14;;;;;;;3.28;3.08;;;;;;;23.77;nan;100988.56;4984546;28;20088;-77
2023/08/20 08:21:41;;;;;;;3.22;2.95;;;;;;;23.77;nan;100985.91;4983948;28;20033;-76
2023/08/20 08:24:06;;;;;;;3.28;2.97;;;;;;;23.77;nan;100988.56;4991087;28;20022;-78
2023/08/20 08:26:35;;;;;;;3.17;2.97;;;;;;;23.78;nan;100993.75;4983336;28;20057;-78
2023/08/20 08:29:01;;;;;;;3.58;3.30;;;;;;;23.78;nan;101000.84;4984254;28;20042;-78
2023/08/20 08:31:26;;;;;;;3.10;2.90;;;;;;;23.78;nan;100999.03;4983281;28;20065;-78
2023/08/20 08:33:52;;;;;;;3.60;3.40;;;;;;;23.78;nan;100998.19;4978587;28;20069;-78
2023/08/20 08:36:17;;;;;;;3.50;3.20;;;;;;;23.78;nan;100990.25;4983907;28;20030;-78
2023/08/20 08:38:46;;;;;;;3.83;3.53;;;;;;;23.79;nan;100999.88;4984108;28;20079;-77
2023/08/20 08:41:12;;;;;;;3.40;3.10;;;;;;;23.78;nan;101001.69;4984215;28;20042;-78
2023/08/20 08:43:38;;;;;;;3.45;3.25;;;;;;;23.79;nan;101003.38;4961058;28;20125;-78
2023/08/20 08:46:08;;;;;;;3.40;3.20;;;;;;;23.78;nan;100996.41;4980863;28;20105;-78
2023/08/20 08:48:35;;;;;;;3.83;3.53;;;;;;;23.78;nan;100991.09;4983336;28;20026;-77
2023/08/20 08:51:01;;;;;;;3.88;3.45;;;;;;;23.79;nan;100995.41;4983320;28;20040;-78
2023/08/20 08:53:26;;;;;;;3.97;3.67;;;;;;;23.80;nan;100998.91;4991669;28;20391;-77
2023/08/20 08:55:52;;;;;;;3.80;3.50;;;;;;;23.79;nan;100998.06;4987059;28;20030;-77
2023/08/20 08:58:17;;;;;;;3.10;2.90;;;;;;;23.80;nan;100998.91;4982868;28;20029;-78
2023/08/20 09:00:42;;;;;;;3.70;3.47;;;;;;;23.80;nan;100999.75;4981987;28;20029;-77
2023/08/20 09:03:08;;;;;;;3.70;3.40;;;;;;;23.79;nan;100995.41;4991508;28;20116;-78
2023/08/20 09:05:46;;;;;;;3.25;3.05;;;;;;;23.80;nan;100998.91;4990658;28;20739;-78
2023/08/20 09:08:19;;;;;;;3.85;3.55;;;;;;;23.80;nan;101005.06;4982934;28;20041;-78
2023/08/20 09:10:44;;;;;;;3.42;3.10;;;;;;;23.79;nan;101000.72;4984037;28;20676;-78
2023/08/20 09:13:09;;;;;;;3.97;3.67;;;;;;;23.80;nan;101005.06;4980882;28;20040;-77
2023/08/20 09:15:35;;;;;;;3.50;3.17;;;;;;;23.81;nan;101005.91;4994298;28;20520;-78
2023/08/20 09:18:03;;;;;;;3.38;3.15;;;;;;;23.81;nan;101003.25;4985269;28;20497;-78
2023/08/20 09:20:37;;;;;;;3.08;2.85;;;;;;;23.82;nan;101001.44;4984707;28;20407;-77
2023/08/20 09:23:04;;;;;;;3.53;3.22;;;;;;;23.81;nan;101003.25;4990781;28;20449;-77
2023/08/20 09:25:29;;;;;;;3.42;3.13;;;;;;;23.81;nan;101003.25;4982770;28;20030;-78
2023/08/20 09:27:55;;;;;;;3.80;3.50;;;;;;;23.82;nan;101004.94;4984072;28;20030;-78
2023/08/20 09:30:20;;;;;;;3.50;3.30;;;;;;;23.83;nan;101008.44;4985530;28;21310;-76
2023/08/20 09:33:02;;;;;;;3.50;3.20;;;;;;;23.84;nan;101010.13;4990270;28;20026;-77
2023/08/20 09:35:28;;;;;;;3.25;2.95;;;;;;;23.82;nan;101007.56;4993126;28;21428;-78
2023/08/20 09:37:58;;;;;;;3.33;3.13;;;;;;;23.82;nan;100999.63;4984225;28;20092;-77
2023/08/20 09:40:24;;;;;;;4.25;3.92;;;;;;;23.83;nan;101005.81;4983352;28;20125;-78
2023/08/20 09:42:50;;;;;;;3.17;2.97;;;;;;;23.83;nan;101009.28;4979648;28;20042;-78
2023/08/20 09:45:16;;;;;;;3.78;3.47;;;;;;;23.83;nan;101008.44;4977675;28;20030;-79
2023/08/20 09:47:42;;;;;;;3.50;3.22;;;;;;;23.84;nan;101010.13;4983675;28;20116;-78
2023/08/20 09:50:10;;;;;;;3.63;3.38;;;;;;;23.83;nan;101013.75;4982541;28;20038;-78
2023/08/20 09:52:40;;;;;;;4.20;3.85;;;;;;;23.83;nan;101014.59;4986882;28;20033;-79
2023/08/20 09:55:09;;;;;;;3.92;3.63;;;;;;;23.84;nan;101010.97;4978252;28;20030;-78
2023/08/20 09:57:40;;;;;;;;;;;;;;;23.84;nan;100994.22;4981460;28;20081;-78
2023/08/20 10:00:09;;;;;;;3.08;2.88;;;;;;;23.84;nan;101003.00;4980705;28;19921;-77
2023/08/20 10:02:35;;;;;;;3.53;3.22;;;;;;;23.83;nan;101001.34;4968590;28;20040;-78
2023/08/20 10:05:03;;;;;;;3.55;3.30;;;;;;;23.83;nan;100993.38;4975112;28;20263;-78
2023/08/20 10:07:31;;;;;;;3.90;3.58;;;;;;;23.84;nan;100996.88;4980973;28;21334;-77
2023/08/20 10:10:00;;;;;;;3.90;3.65;;;;;;;23.83;nan;100987.25;4981164;28;20080;-78
2023/08/20 10:12:26;;;;;;;3.58;3.38;;;;;;;23.85;nan;100988.78;4980652;28;20058;-78
2023/08/20 10:14:52;;;;;;;3.47;3.22;;;;;;;23.85;nan;100988.78;4994780;28;20076;-78
2023/08/20 10:17:17;;;;;;;3.47;3.22;;;;;;;23.85;nan;100988.78;4983988;28;20183;-77
2023/08/20 10:19:43;;;;;;;3.80;3.50;;;;;;;23.85;nan;100987.94;4983027;28;20110;-77
2023/08/20 10:22:08;;;;;;;3.50;3.30;;;;;;;23.86;nan;100982.50;4981681;28;20033;-78
2023/08/20 10:24:48;;;;;;;3.40;3.20;;;;;;;23.86;nan;100986.97;4994170;28;20403;-78
2023/08/20 10:27:24;;;;;;;3.85;3.55;;;;;;;23.86;nan;100993.13;4980597;28;20054;-77
2023/08/20 10:29:49;;;;;;;3.80;3.50;;;;;;;23.85;nan;100988.78;4982377;28;20038;-78
2023/08/20 10:32:15;;;;;;;3.65;3.35;;;;;;;23.86;nan;100986.97;4983889;28;21242;-78
2023/08/20 10:34:43;;;;;;;3.80;3.50;;;;;;;23.86;nan;100987.81;4992538;28;20149;-77
2023/08/20 10:37:12;;;;;;;4.18;3.78;;;;;;;23.87;nan;100984.19;4981740;28;20072;-77
2023/08/20 10:39:38;;;;;;;3.60;3.38;;;;;;;23.87;nan;100988.66;4982606;28;20034;-78
2023/08/20 10:42:23;;;;;;;3.45;3.25;;;;;;;23.86;nan;100987.81;4966074;28;20581;-77
2023/08/20 10:45:10;;;;;;;3.90;3.60;;;;;;;23.88;nan;100990.34;4990274;28;20092;-78
2023/08/20 10:47:44;;;;;;;3.70;3.40;;;;;;;23.87;nan;100984.19;4980166;28;20298;-78
2023/08/20 10:50:11;;;;;;;3.50;3.20;;;;;;;23.87;nan;100978.88;4980553;28;20476;-78
2023/08/20 10:52:55;;;;;;;3.78;3.47;;;;;;;23.88;nan;100980.59;4986070;28;20026;-78
2023/08/20 10:55:24;;;;;;;3.65;3.35;;;;;;;23.88;nan;100972.66;4983653;28;20034;-77
2023/08/20 10:57:56;;;;;;;4.10;3.80;;;;;;;23.88;nan;100985.03;4980308;28;20033;-78
2023/08/20 11:00:22;;;;;;;4.13;3.83;;;;;;;23.89;nan;100984.09;4980912;28;20052;-78
2023/08/20 11:02:49;;;;;;;3.42;3.22;;;;;;;23.88;nan;100985.91;4987087;28;20033;-77
2023/08/20 11:05:18;;;;;;;4.13;3.78;;;;;;;23.88;nan;100977.94;4977177;28;20157;-77
2023/08/20 11:07:48;;;;;;;3.60;3.38;;;;;;;23.88;nan;100975.28;4979303;28;20029;-77
2023/08/20 11:10:16;;;;;;;3.90;3.60;;;;;;;23.89;nan;100974.31;4980756;28;20060;-77
2023/08/20 11:12:43;;;;;;;4.00;3.58;;;;;;;23.89;nan;100976.97;4979184;28;20038;-77
2023/08/20 11:15:10;;;;;;;3.65;3.35;;;;;;;23.89;nan;100976.13;4993754;28;20096;-78
2023/08/20 11:17:40;;;;;;;3.63;3.33;;;;;;;23.90;nan;100970.69;4980589;28;20030;-78
2023/08/20 11:20:07;;;;;;;4.00;3.60;;;;;;;23.89;nan;100970.84;4980145;28;20469;-78
2023/08/20 11:22:32;;;;;;;3.88;3.58;;;;;;;23.90;nan;100970.69;4978488;28;20081;-77
2023/08/20 11:24:59;;;;;;;4.20;3.90;;;;;;;23.89;nan;100971.66;4974743;28;20490;-78
2023/08/20 11:27:28;;;;;;;4.05;3.75;;;;;;;23.90;nan;100973.34;4981436;28;20045;-78
2023/08/20 11:29:56;;;;;;;3.47;3.22;;;;;;;23.90;nan;100967.22;4980526;28;20040;-77
2023/08/20 11:32:21;;;;;;;4.07;3.78;;;;;;;23.90;nan;100972.50;4983699;28;20048;-78
2023/08/20 11:34:47;;;;;;;3.97;3.67;;;;;;;23.90;nan;100972.50;4985567;28;20034;-77
2023/08/20 11:37:12;;;;;;;4.40;4.00;;;;;;;23.90;nan;100969.84;4985242;28;20030;-77
2023/08/20 11:39:37;;;;;;;3.90;3.60;;;;;;;23.90;nan;100973.34;4984318;28;20023;-78
2023/08/20 11:42:03;;;;;;;3.78;3.47;;;;;;;23.91;nan;100968.88;4985818;28;20029;-78